Time;durP1;ratioP1;P1;durP2;ratioP2;P2;SDS_P1;SDS_P2;PMS_P1;PMS_P2;Temp;Humidity;BMP_temperature;BMP_pressure;BME280_temperature;BME280_humidity;BME280_pressure;Samples;Min_cycle;Max_cycle;Signal;HPM_P1;HPM_P2
2022/04/12 00:01:33;;;;;;;5.35;3.22;;;;;;;;;;5100864;28;20230;-15
2022/04/12 00:04:01;;;;;;;2.97;2.53;;;;;;;;;;5102780;28;20235;-15
2022/04/12 00:06:28;;;;;;;3.17;2.65;;;;;;;;;;5101994;28;20240;-15
2022/04/12 00:08:55;;;;;;;4.40;2.90;;;;;;;;;;5102284;28;20232;-15
2022/04/12 00:11:24;;;;;;;4.78;2.70;;;;;;;;;;5102895;28;20228;-15
2022/04/12 00:13:51;;;;;;;3.22;2.55;;;;;;;;;;5102403;28;20315;-15
2022/04/12 00:16:19;;;;;;;4.07;2.72;;;;;;;;;;5099812;28;20236;-15
2022/04/12 00:19:04;;;;;;;2.97;2.45;;;;;;;;;;5103366;28;20281;-14
2022/04/12 00:21:34;;;;;;;3.55;2.72;;;;;;;;;;5100887;28;20228;-14
2022/04/12 00:24:02;;;;;;;3.72;2.85;;;;;;;;;;5102492;28;20710;-14
2022/04/12 00:26:31;;;;;;;3.80;2.67;;;;;;;;;;5099797;28;20340;-15
2022/04/12 00:28:58;;;;;;;3.97;2.47;;;;;;;;;;5101040;28;20221;-14
2022/04/12 00:31:25;;;;;;;4.45;2.53;;;;;;;;;;5101775;28;20340;-15
2022/04/12 00:33:53;;;;;;;4.28;2.45;;;;;;;;;;5103203;28;20378;-15
2022/04/12 00:36:20;;;;;;;5.18;2.88;;;;;;;;;;5101914;28;20224;-15
2022/04/12 00:38:48;;;;;;;3.67;2.65;;;;;;;;;;5103083;28;20230;-15
2022/04/12 00:41:15;;;;;;;3.58;2.25;;;;;;;;;;5099315;28;20240;-14
2022/04/12 00:43:44;;;;;;;3.15;2.60;;;;;;;;;;5103556;28;20234;-15
2022/04/12 00:46:11;;;;;;;5.50;2.88;;;;;;;;;;5095629;28;20231;-14
2022/04/12 00:48:39;;;;;;;3.47;2.50;;;;;;;;;;5099186;27;20240;-14
2022/04/12 00:51:06;;;;;;;3.58;2.63;;;;;;;;;;5100276;28;20239;-14
2022/04/12 00:53:34;;;;;;;3.80;2.58;;;;;;;;;;5102631;28;20220;-14
2022/04/12 00:56:02;;;;;;;3.78;2.85;;;;;;;;;;5100839;28;20220;-14
2022/04/12 00:58:29;;;;;;;2.80;2.47;;;;;;;;;;5094782;28;20229;-15
2022/04/12 01:00:58;;;;;;;3.05;2.40;;;;;;;;;;5094672;28;20296;-14
2022/04/12 01:03:25;;;;;;;3.13;2.50;;;;;;;;;;5101795;28;20227;-15
2022/04/12 01:05:53;;;;;;;4.78;2.50;;;;;;;;;;5099155;28;20243;-14
2022/04/12 01:08:20;;;;;;;4.68;2.42;;;;;;;;;;5097352;28;21064;-14
2022/04/12 01:10:47;;;;;;;3.47;2.45;;;;;;;;;;5101751;28;20228;-15
2022/04/12 01:13:15;;;;;;;4.03;2.45;;;;;;;;;;5098020;28;20229;-15
2022/04/12 01:15:43;;;;;;;3.30;2.20;;;;;;;;;;5097167;28;20231;-15
2022/04/12 01:18:12;;;;;;;3.45;2.28;;;;;;;;;;5096078;28;20229;-15
2022/04/12 01:20:39;;;;;;;2.80;2.22;;;;;;;;;;5102570;28;21007;-15
2022/04/12 01:23:08;;;;;;;3.55;2.20;;;;;;;;;;5099593;27;20236;-14
2022/04/12 01:25:37;;;;;;;2.53;2.20;;;;;;;;;;5102043;28;20564;-15
2022/04/12 01:28:04;;;;;;;2.70;2.30;;;;;;;;;;5098901;28;20726;-15
2022/04/12 01:30:32;;;;;;;2.85;2.22;;;;;;;;;;5099365;28;20423;-15
2022/04/12 01:32:59;;;;;;;2.97;2.10;;;;;;;;;;5101305;28;20315;-15
2022/04/12 01:35:26;;;;;;;3.65;2.58;;;;;;;;;;5100817;28;20239;-14
2022/04/12 01:37:54;;;;;;;2.40;2.20;;;;;;;;;;5100389;28;20228;-14
2022/04/12 01:40:21;;;;;;;2.60;2.40;;;;;;;;;;5100506;28;20224;-14
2022/04/12 01:42:52;;;;;;;4.40;2.22;;;;;;;;;;5101840;28;20242;-14
2022/04/12 01:45:20;;;;;;;2.78;2.15;;;;;;;;;;5099755;28;20235;-15
2022/04/12 01:47:47;;;;;;;4.10;2.38;;;;;;;;;;5098726;28;20232;-15
2022/04/12 01:50:15;;;;;;;4.07;2.20;;;;;;;;;;5099291;28;20239;-14
2022/04/12 01:52:42;;;;;;;3.05;2.10;;;;;;;;;;5098705;28;20221;-15
2022/04/12 01:55:09;;;;;;;2.78;2.20;;;;;;;;;;5106037;28;20227;-15
2022/04/12 01:57:37;;;;;;;2.53;2.30;;;;;;;;;;5103069;28;20228;-13
2022/04/12 02:00:07;;;;;;;3.00;2.10;;;;;;;;;;5105132;28;20236;-14
2022/04/12 02:02:34;;;;;;;3.40;2.03;;;;;;;;;;5104828;28;20232;-15
2022/04/12 02:05:02;;;;;;;2.80;2.38;;;;;;;;;;5105625;28;20282;-15
2022/04/12 02:07:29;;;;;;;3.22;2.30;;;;;;;;;;5103792;28;20220;-15
2022/04/12 02:09:57;;;;;;;4.20;2.42;;;;;;;;;;5104002;28;20224;-14
2022/04/12 02:12:24;;;;;;;3.67;2.30;;;;;;;;;;5103659;28;20225;-14
2022/04/12 02:14:51;;;;;;;2.15;1.88;;;;;;;;;;5104717;28;21056;-15
2022/04/12 02:17:20;;;;;;;3.58;2.53;;;;;;;;;;5106462;28;20228;-15
2022/04/12 02:19:48;;;;;;;3.28;2.70;;;;;;;;;;5097567;28;20706;-13
2022/04/12 02:22:15;;;;;;;2.53;2.30;;;;;;;;;;5106339;22;20237;-16
2022/04/12 02:24:42;;;;;;;4.60;2.30;;;;;;;;;;5097671;28;20725;-16
2022/04/12 02:27:10;;;;;;;2.85;2.40;;;;;;;;;;5104388;28;20228;-16
2022/04/12 02:29:37;;;;;;;2.35;2.10;;;;;;;;;;5099314;28;20274;-16
2022/04/12 02:32:05;;;;;;;2.55;2.15;;;;;;;;;;5098483;28;20241;-16
2022/04/12 02:34:33;;;;;;;2.40;2.10;;;;;;;;;;5100826;28;20248;-16
2022/04/12 02:37:01;;;;;;;2.28;2.08;;;;;;;;;;5101087;28;20250;-16
2022/04/12 02:39:28;;;;;;;2.53;2.15;;;;;;;;;;5101542;28;20227;-16
2022/04/12 02:41:55;;;;;;;2.90;2.20;;;;;;;;;;5102915;28;20237;-16
2022/04/12 02:44:23;;;;;;;2.65;2.28;;;;;;;;;;5103138;28;20254;-16
2022/04/12 02:46:50;;;;;;;2.50;2.30;;;;;;;;;;5100849;28;20221;-16
2022/04/12 02:49:17;;;;;;;2.28;1.90;;;;;;;;;;5096949;28;20331;-16
2022/04/12 02:51:46;;;;;;;3.05;2.10;;;;;;;;;;5100410;28;20235;-16
2022/04/12 02:54:14;;;;;;;2.47;1.92;;;;;;;;;;5099580;28;20232;-16
2022/04/12 02:56:41;;;;;;;3.28;2.42;;;;;;;;;;5096170;28;20302;-16
2022/04/12 02:59:08;;;;;;;3.47;2.08;;;;;;;;;;5104660;27;20224;-16
2022/04/12 03:01:35;;;;;;;2.97;2.08;;;;;;;;;;5094880;28;20232;-16
2022/04/12 03:04:03;;;;;;;2.20;2.00;;;;;;;;;;5101754;28;20230;-16
2022/04/12 03:06:30;;;;;;;2.30;2.08;;;;;;;;;;5101497;28;20278;-16
2022/04/12 03:08:59;;;;;;;3.58;2.10;;;;;;;;;;5095307;28;20335;-16
2022/04/12 03:11:26;;;;;;;2.42;1.90;;;;;;;;;;5102464;28;20225;-16
2022/04/12 03:13:54;;;;;;;2.72;2.17;;;;;;;;;;5103809;28;20225;-16
2022/04/12 03:16:21;;;;;;;2.83;2.05;;;;;;;;;;5102265;28;20233;-16
2022/04/12 03:18:48;;;;;;;4.05;1.98;;;;;;;;;;5103420;28;20278;-16
2022/04/12 03:21:16;;;;;;;3.08;2.13;;;;;;;;;;5105088;27;21068;-16
2022/04/12 03:23:43;;;;;;;2.88;2.33;;;;;;;;;;5124757;27;20234;-16
2022/04/12 03:26:12;;;;;;;2.78;2.20;;;;;;;;;;5117059;27;20227;-16
2022/04/12 03:28:39;;;;;;;2.50;2.30;;;;;;;;;;5123916;27;20235;-16
2022/04/12 03:31:06;;;;;;;4.55;2.22;;;;;;;;;;5117143;27;20380;-16
2022/04/12 03:33:34;;;;;;;4.80;2.15;;;;;;;;;;5122039;27;20220;-16
2022/04/12 03:36:01;;;;;;;3.05;2.42;;;;;;;;;;5124286;27;20702;-16
2022/04/12 03:38:29;;;;;;;2.35;2.10;;;;;;;;;;5122694;27;20219;-16
2022/04/12 03:40:58;;;;;;;3.55;2.15;;;;;;;;;;5121448;27;20614;-16
2022/04/12 03:43:27;;;;;;;3.35;2.30;;;;;;;;;;5122961;27;20235;-16
2022/04/12 03:45:54;;;;;;;5.68;2.08;;;;;;;;;;5123728;27;20215;-16
2022/04/12 03:48:22;;;;;;;2.90;2.28;;;;;;;;;;5122025;27;21037;-16
2022/04/12 03:50:49;;;;;;;3.35;2.00;;;;;;;;;;5123185;27;20227;-16
2022/04/12 03:53:16;;;;;;;2.08;1.88;;;;;;;;;;5117879;27;20224;-16
2022/04/12 03:55:46;;;;;;;2.35;1.92;;;;;;;;;;5124771;27;20227;-16
2022/04/12 03:58:19;;;;;;;4.53;2.20;;;;;;;;;;5117733;27;20718;-16
2022/04/12 04:00:53;;;;;;;3.38;2.22;;;;;;;;;;5121866;27;20255;-16
2022/04/12 04:03:21;;;;;;;2.65;2.13;;;;;;;;;;5120858;27;20231;-16
2022/04/12 04:05:48;;;;;;;2.13;1.92;;;;;;;;;;5121628;27;20231;-16
2022/04/12 04:08:16;;;;;;;2.60;2.28;;;;;;;;;;5124322;27;20250;-16
2022/04/12 04:10:43;;;;;;;3.22;2.33;;;;;;;;;;5120662;27;20250;-16
2022/04/12 04:13:11;;;;;;;3.22;2.15;;;;;;;;;;5115854;27;20227;-16
2022/04/12 04:15:40;;;;;;;2.50;2.10;;;;;;;;;;5122538;27;20253;-16
2022/04/12 04:18:09;;;;;;;2.63;2.10;;;;;;;;;;5120797;27;21033;-16
2022/04/12 04:20:36;;;;;;;4.65;2.40;;;;;;;;;;5122184;27;20219;-16
2022/04/12 04:23:04;;;;;;;3.60;2.10;;;;;;;;;;5121855;27;20235;-16
2022/04/12 04:25:32;;;;;;;5.93;2.28;;;;;;;;;;5122673;27;20764;-16
2022/04/12 04:27:59;;;;;;;3.00;2.10;;;;;;;;;;5121833;27;20235;-16
2022/04/12 04:30:27;;;;;;;2.05;1.80;;;;;;;;;;5120295;27;20632;-16
2022/04/12 04:32:54;;;;;;;2.55;1.90;;;;;;;;;;5122801;27;20235;-16
2022/04/12 04:35:23;;;;;;;3.97;2.42;;;;;;;;;;5120746;27;20248;-16
2022/04/12 04:37:50;;;;;;;2.80;2.10;;;;;;;;;;5123981;27;20706;-16
2022/04/12 04:40:18;;;;;;;2.65;2.10;;;;;;;;;;5123515;27;20307;-16
2022/04/12 04:42:45;;;;;;;3.00;2.42;;;;;;;;;;5120664;27;20691;-16
2022/04/12 04:45:13;;;;;;;2.25;2.00;;;;;;;;;;5115623;27;20723;-16
2022/04/12 04:47:58;;;;;;;3.95;2.08;;;;;;;;;;5116006;27;20232;-16
2022/04/12 04:50:27;;;;;;;2.78;2.22;;;;;;;;;;5119493;27;20281;-16
2022/04/12 04:52:54;;;;;;;2.70;2.40;;;;;;;;;;5119856;27;20254;-16
2022/04/12 04:55:22;;;;;;;2.53;2.00;;;;;;;;;;5122841;27;20242;-16
2022/04/12 04:57:49;;;;;;;2.95;2.22;;;;;;;;;;5122320;27;20223;-16
2022/04/12 05:00:17;;;;;;;3.85;2.70;;;;;;;;;;5119956;27;20230;-16
2022/04/12 05:02:45;;;;;;;2.80;2.50;;;;;;;;;;5120084;27;20725;-16
2022/04/12 05:05:12;;;;;;;3.60;2.40;;;;;;;;;;5112196;27;20227;-16
2022/04/12 05:07:41;;;;;;;2.75;2.05;;;;;;;;;;5118585;27;20232;-16
2022/04/12 05:10:09;;;;;;;2.78;1.90;;;;;;;;;;5122764;27;20241;-16
2022/04/12 05:12:37;;;;;;;3.20;1.98;;;;;;;;;;5120456;27;20228;-16
2022/04/12 05:15:04;;;;;;;2.60;1.88;;;;;;;;;;5119690;27;20760;-16
2022/04/12 05:17:32;;;;;;;1.70;1.60;;;;;;;;;;5119817;27;20718;-16
2022/04/12 05:19:59;;;;;;;2.20;1.73;;;;;;;;;;5122519;27;20219;-16
2022/04/12 05:22:26;;;;;;;2.03;1.70;;;;;;;;;;5117777;27;21077;-16
2022/04/12 05:24:55;;;;;;;1.77;1.52;;;;;;;;;;5123872;27;20227;-16
2022/04/12 05:27:22;;;;;;;1.98;1.50;;;;;;;;;;5126410;27;20863;-16
2022/04/12 05:29:50;;;;;;;6.97;1.95;;;;;;;;;;5124388;27;20242;-16
2022/04/12 05:32:17;;;;;;;2.70;1.58;;;;;;;;;;5121982;27;20277;-16
2022/04/12 05:34:46;;;;;;;1.83;1.70;;;;;;;;;;5125447;27;20232;-16
2022/04/12 05:37:13;;;;;;;1.90;1.70;;;;;;;;;;5118611;27;20231;-16
2022/04/12 05:39:40;;;;;;;2.20;1.80;;;;;;;;;;5114256;27;20965;-16
2022/04/12 05:42:09;;;;;;;2.08;1.60;;;;;;;;;;5117718;27;20234;-16
2022/04/12 05:44:36;;;;;;;2.75;1.73;;;;;;;;;;5117153;27;20733;-16
2022/04/12 05:47:04;;;;;;;2.95;1.90;;;;;;;;;;5117319;27;20220;-16
2022/04/12 05:49:31;;;;;;;2.97;1.70;;;;;;;;;;5117137;27;20232;-16
2022/04/12 05:51:59;;;;;;;2.17;1.60;;;;;;;;;;5115107;27;20294;-16
2022/04/12 05:54:26;;;;;;;1.63;1.30;;;;;;;;;;5114701;27;20232;-16
2022/04/12 05:56:53;;;;;;;2.30;1.45;;;;;;;;;;5120436;27;20232;-16
2022/04/12 05:59:22;;;;;;;2.05;1.55;;;;;;;;;;5119056;27;20267;-16
2022/04/12 06:01:50;;;;;;;1.75;1.60;;;;;;;;;;5116828;27;21041;-16
2022/04/12 06:04:17;;;;;;;4.18;1.52;;;;;;;;;;5116668;27;20259;-16
2022/04/12 06:06:45;;;;;;;2.20;1.30;;;;;;;;;;5115438;27;20231;-16
2022/04/12 06:09:12;;;;;;;2.28;1.58;;;;;;;;;;5116399;27;20235;-16
2022/04/12 06:11:39;;;;;;;2.10;1.70;;;;;;;;;;5115597;27;20734;-16
2022/04/12 06:14:07;;;;;;;2.40;1.70;;;;;;;;;;5114090;27;20282;-16
2022/04/12 06:16:36;;;;;;;1.85;1.60;;;;;;;;;;5119607;27;20235;-16
2022/04/12 06:19:03;;;;;;;2.38;1.50;;;;;;;;;;5121220;27;20224;-16
2022/04/12 06:21:30;;;;;;;2.10;1.60;;;;;;;;;;5107887;27;20256;-16
2022/04/12 06:23:58;;;;;;;2.25;1.45;;;;;;;;;;5118479;27;20228;-16
2022/04/12 06:26:25;;;;;;;2.35;1.70;;;;;;;;;;5123904;27;20235;-16
2022/04/12 06:28:53;;;;;;;2.53;1.33;;;;;;;;;;5124775;27;20237;-16
2022/04/12 06:31:20;;;;;;;1.60;1.27;;;;;;;;;;5122208;27;20239;-16
2022/04/12 06:33:50;;;;;;;2.47;1.55;;;;;;;;;;5126632;27;20235;-16
2022/04/12 06:36:17;;;;;;;3.45;1.60;;;;;;;;;;5121844;27;20255;-16
2022/04/12 06:38:44;;;;;;;6.57;2.00;;;;;;;;;;5125975;27;20227;-16
2022/04/12 06:41:12;;;;;;;4.93;2.08;;;;;;;;;;5125875;27;21030;-16
2022/04/12 06:43:39;;;;;;;3.10;1.52;;;;;;;;;;5122312;27;20232;-16
2022/04/12 06:46:07;;;;;;;4.65;2.00;;;;;;;;;;5122792;27;20228;-16
2022/04/12 06:48:34;;;;;;;2.63;1.52;;;;;;;;;;5124686;27;20228;-16
2022/04/12 06:51:03;;;;;;;3.22;1.95;;;;;;;;;;5120908;27;21136;-16
2022/04/12 06:53:31;;;;;;;2.90;2.08;;;;;;;;;;5111731;27;20225;-16
2022/04/12 06:55:58;;;;;;;7.68;2.10;;;;;;;;;;5115522;27;20960;-16
2022/04/12 06:58:25;;;;;;;4.45;1.75;;;;;;;;;;5117195;27;20314;-16
2022/04/12 07:00:53;;;;;;;2.45;1.75;;;;;;;;;;5121597;27;20232;-16
2022/04/12 07:03:20;;;;;;;3.20;1.70;;;;;;;;;;5103541;27;20224;-16
2022/04/12 07:05:49;;;;;;;3.50;1.48;;;;;;;;;;5101637;27;20224;-16
2022/04/12 07:08:17;;;;;;;3.45;1.67;;;;;;;;;;5117882;27;20258;-16
2022/04/12 07:10:49;;;;;;;3.35;2.00;;;;;;;;;;5124475;27;21099;-16
2022/04/12 07:13:17;;;;;;;3.90;1.45;;;;;;;;;;5119502;27;20229;-16
2022/04/12 07:15:44;;;;;;;4.07;1.80;;;;;;;;;;5121871;27;20231;-16
2022/04/12 07:18:12;;;;;;;3.75;1.60;;;;;;;;;;5125510;27;20705;-16
2022/04/12 07:20:39;;;;;;;3.45;1.63;;;;;;;;;;5122273;27;20227;-16
2022/04/12 07:23:07;;;;;;;2.80;1.63;;;;;;;;;;5121761;27;20247;-16
2022/04/12 07:25:35;;;;;;;4.22;2.10;;;;;;;;;;5124203;27;20224;-16
2022/04/12 07:28:02;;;;;;;2.88;1.65;;;;;;;;;;5121042;27;20236;-15
2022/04/12 07:30:30;;;;;;;4.10;1.48;;;;;;;;;;5122819;27;20679;-16
2022/04/12 07:33:17;;;;;;;2.58;1.60;;;;;;;;;;5124789;27;20226;-16
2022/04/12 07:35:44;;;;;;;2.25;1.63;;;;;;;;;;5121519;27;21082;-16
2022/04/12 07:38:12;;;;;;;4.00;1.50;;;;;;;;;;5117617;27;20243;-16
2022/04/12 07:40:40;;;;;;;2.53;1.50;;;;;;;;;;5124799;27;20227;-16
2022/04/12 07:43:08;;;;;;;2.10;1.70;;;;;;;;;;5120957;27;20687;-16
2022/04/12 07:45:36;;;;;;;2.28;1.45;;;;;;;;;;5117682;27;20230;-16
2022/04/12 07:48:04;;;;;;;4.30;1.50;;;;;;;;;;5118299;27;20224;-16
2022/04/12 07:50:31;;;;;;;5.45;2.10;;;;;;;;;;5118250;27;20235;-16
2022/04/12 07:52:58;;;;;;;5.00;1.80;;;;;;;;;;5112408;27;20231;-16
2022/04/12 07:55:26;;;;;;;4.20;2.00;;;;;;;;;;5110781;27;21094;-16
2022/04/12 07:57:54;;;;;;;5.78;2.17;;;;;;;;;;5115925;27;20232;-16
2022/04/12 08:00:22;;;;;;;2.90;1.88;;;;;;;;;;5112262;27;20230;-16
2022/04/12 08:02:49;;;;;;;2.17;1.60;;;;;;;;;;5115899;27;20258;-16
2022/04/12 08:05:17;;;;;;;3.25;1.95;;;;;;;;;;5115925;27;20319;-15
2022/04/12 08:07:47;;;;;;;3.67;1.75;;;;;;;;;;5113591;27;20243;-15
2022/04/12 08:10:15;;;;;;;7.22;2.00;;;;;;;;;;5112850;27;20231;-15
2022/04/12 08:12:43;;;;;;;5.68;1.73;;;;;;;;;;5107445;27;20235;-15
2022/04/12 08:15:12;;;;;;;4.43;2.03;;;;;;;;;;5117187;27;20236;-14
2022/04/12 08:17:39;;;;;;;2.53;1.80;;;;;;;;;;5119969;27;20233;-14
2022/04/12 08:20:07;;;;;;;4.28;1.90;;;;;;;;;;5120491;27;20701;-14
2022/04/12 08:22:34;;;;;;;3.28;1.70;;;;;;;;;;5120586;27;20250;-15
2022/04/12 08:25:16;;;;;;;2.80;2.10;;;;;;;;;;5112095;27;20612;-14
2022/04/12 08:27:43;;;;;;;4.32;2.15;;;;;;;;;;5123290;27;20231;-14
2022/04/12 08:30:12;;;;;;;4.38;2.20;;;;;;;;;;5110721;27;20279;-14
2022/04/12 08:32:40;;;;;;;6.03;2.40;;;;;;;;;;5119218;27;20244;-14
2022/04/12 08:35:07;;;;;;;5.25;2.40;;;;;;;;;;5117160;27;20775;-14
2022/04/12 08:37:35;;;;;;;6.03;2.53;;;;;;;;;;5120860;27;20232;-14
2022/04/12 08:40:02;;;;;;;6.25;2.30;;;;;;;;;;5114593;27;20228;-14
2022/04/12 08:42:30;;;;;;;8.20;2.45;;;;;;;;;;5112313;27;20238;-14
2022/04/12 08:44:57;;;;;;;6.65;3.30;;;;;;;;;;5121613;27;20232;-15
2022/04/12 08:47:26;;;;;;;6.93;3.53;;;;;;;;;;5116048;27;20235;-15
2022/04/12 08:49:53;;;;;;;5.00;2.90;;;;;;;;;;5119225;27;20227;-14
2022/04/12 08:52:20;;;;;;;4.78;2.92;;;;;;;;;;5110669;27;20728;-14
2022/04/12 08:54:48;;;;;;;8.90;3.20;;;;;;;;;;5118302;27;20240;-14
2022/04/12 08:57:15;;;;;;;9.10;3.00;;;;;;;;;;5124145;27;20227;-14
2022/04/12 08:59:42;;;;;;;8.98;2.80;;;;;;;;;;5120690;27;20227;-14
2022/04/12 09:02:10;;;;;;;5.75;2.40;;;;;;;;;;5120883;27;20242;-14
2022/04/12 09:04:39;;;;;;;9.65;2.92;;;;;;;;;;5125770;27;20289;-14
2022/04/12 09:07:08;;;;;;;4.75;2.33;;;;;;;;;;5122486;27;20234;-14
2022/04/12 09:09:35;;;;;;;5.18;2.67;;;;;;;;;;5124637;27;20266;-14
2022/04/12 09:12:03;;;;;;;7.35;2.40;;;;;;;;;;5123237;27;20736;-17
2022/04/12 09:14:36;;;;;;;4.13;2.45;;;;;;;;;;5124952;27;20385;-14
2022/04/12 09:17:04;;;;;;;4.07;2.25;;;;;;;;;;5122048;27;20234;-14
2022/04/12 09:19:40;;;;;;;5.57;2.42;;;;;;;;;;5125399;27;20306;-15
2022/04/12 09:22:11;;;;;;;4.85;1.98;;;;;;;;;;5124719;27;20247;-16
2022/04/12 09:24:42;;;;;;;3.70;2.30;;;;;;;;;;5126796;27;20223;-14
2022/04/12 09:27:11;;;;;;;2.97;2.00;;;;;;;;;;5123885;27;20225;-14
2022/04/12 09:29:40;;;;;;;5.45;2.15;;;;;;;;;;5126822;27;20232;-14
2022/04/12 09:32:13;;;;;;;3.33;2.22;;;;;;;;;;5121030;27;20992;-14
2022/04/12 09:34:42;;;;;;;4.28;2.40;;;;;;;;;;5118938;27;20968;-14
2022/04/12 09:37:30;;;;;;;3.72;2.30;;;;;;;;;;5126046;27;20227;-14
2022/04/12 09:40:07;;;;;;;5.20;2.55;;;;;;;;;;5124599;27;20698;-15
2022/04/12 09:42:38;;;;;;;5.53;2.08;;;;;;;;;;5124684;27;20242;-14
2022/04/12 09:45:06;;;;;;;2.80;2.10;;;;;;;;;;5123615;27;21025;-15
2022/04/12 09:47:33;;;;;;;3.10;1.95;;;;;;;;;;5122870;27;20786;-14
2022/04/12 09:50:22;;;;;;;4.38;2.25;;;;;;;;;;5120204;27;20238;-15
2022/04/12 09:52:52;;;;;;;7.07;2.10;;;;;;;;;;5123391;27;20235;-14
2022/04/12 09:55:32;;;;;;;5.68;2.45;;;;;;;;;;5123712;27;20235;-15
2022/04/12 09:58:10;;;;;;;5.00;2.40;;;;;;;;;;5126617;27;20228;-14
2022/04/12 10:00:38;;;;;;;3.33;2.28;;;;;;;;;;5123688;27;20227;-14
2022/04/12 10:03:06;;;;;;;2.88;2.05;;;;;;;;;;5126369;27;20238;-14
2022/04/12 10:05:34;;;;;;;5.20;2.42;;;;;;;;;;5124441;27;20234;-14
2022/04/12 10:08:03;;;;;;;3.90;2.67;;;;;;;;;;5123888;27;20310;-16
2022/04/12 10:10:30;;;;;;;3.47;2.45;;;;;;;;;;5124620;27;20290;-16
2022/04/12 10:12:58;;;;;;;2.42;2.00;;;;;;;;;;5124667;27;21415;-16
2022/04/12 10:15:26;;;;;;;4.07;2.40;;;;;;;;;;5123147;27;20232;-14
2022/04/12 10:17:53;;;;;;;3.38;2.00;;;;;;;;;;5124925;27;20233;-15
2022/04/12 10:20:20;;;;;;;2.78;1.83;;;;;;;;;;5118421;27;20686;-14
2022/04/12 10:22:49;;;;;;;3.78;2.33;;;;;;;;;;5122334;27;20248;-14
2022/04/12 10:25:17;;;;;;;3.05;2.15;;;;;;;;;;5125626;27;20227;-14
2022/04/12 10:27:44;;;;;;;3.53;2.38;;;;;;;;;;5124924;27;20224;-14
2022/04/12 10:30:21;;;;;;;4.05;2.20;;;;;;;;;;5118260;27;21180;-14
2022/04/12 10:32:58;;;;;;;2.78;2.15;;;;;;;;;;5120278;27;20235;-15
2022/04/12 10:35:25;;;;;;;4.70;2.15;;;;;;;;;;5124162;27;20242;-14
2022/04/12 10:37:54;;;;;;;5.40;2.20;;;;;;;;;;5124618;27;20661;-14
2022/04/12 10:40:42;;;;;;;4.20;2.90;;;;;;;;;;5118338;27;20229;-14
2022/04/12 10:43:10;;;;;;;4.45;2.60;;;;;;;;;;5125835;27;20231;-14
2022/04/12 10:45:40;;;;;;;4.32;2.33;;;;;;;;;;5122208;27;20234;-14
2022/04/12 10:48:08;;;;;;;4.20;2.80;;;;;;;;;;5121599;27;20216;-14
2022/04/12 10:50:41;;;;;;;3.30;1.98;;;;;;;;;;5124183;27;20227;-14
2022/04/12 10:53:10;;;;;;;4.25;2.03;;;;;;;;;;5121593;27;20326;-14
2022/04/12 10:55:38;;;;;;;8.68;2.47;;;;;;;;;;5125669;27;20223;-14
2022/04/12 10:58:11;;;;;;;3.75;2.47;;;;;;;;;;5125418;27;20223;-14
2022/04/12 11:00:38;;;;;;;7.22;2.25;;;;;;;;;;5121885;27;20601;-14
2022/04/12 11:03:06;;;;;;;3.63;2.42;;;;;;;;;;5122596;27;20320;-15
2022/04/12 11:06:00;;;;;;;4.38;1.90;;;;;;;;;;5124492;27;20318;-14
2022/04/12 11:08:47;;;;;;;2.97;1.98;;;;;;;;;;5121600;27;20224;-15
2022/04/12 11:11:18;;;;;;;5.45;2.50;;;;;;;;;;5117691;27;20255;-15
2022/04/12 11:13:46;;;;;;;5.40;2.35;;;;;;;;;;5118456;27;20225;-14
2022/04/12 11:16:13;;;;;;;5.90;2.95;;;;;;;;;;5120008;27;20224;-14
2022/04/12 11:18:47;;;;;;;4.13;2.20;;;;;;;;;;5122268;27;20272;-15
2022/04/12 11:21:15;;;;;;;5.10;2.25;;;;;;;;;;5118477;27;20253;-15
2022/04/12 11:23:47;;;;;;;3.15;2.20;;;;;;;;;;5117145;27;21106;-14
2022/04/12 11:26:33;;;;;;;4.63;2.78;;;;;;;;;;5117877;27;21000;-14
2022/04/12 11:29:01;;;;;;;4.18;2.42;;;;;;;;;;5122129;27;20725;-14
2022/04/12 11:31:28;;;;;;;3.78;2.17;;;;;;;;;;5122014;27;20220;-14
2022/04/12 11:33:55;;;;;;;6.20;2.75;;;;;;;;;;5123004;27;20322;-15
2022/04/12 11:36:23;;;;;;;4.70;2.40;;;;;;;;;;5122825;27;20722;-14
2022/04/12 11:38:51;;;;;;;5.50;2.30;;;;;;;;;;5124358;27;20223;-14
2022/04/12 11:41:19;;;;;;;6.03;2.20;;;;;;;;;;5118696;27;20231;-14
2022/04/12 11:43:46;;;;;;;4.10;2.20;;;;;;;;;;5119604;27;20238;-14
2022/04/12 11:46:16;;;;;;;4.18;2.13;;;;;;;;;;5123275;27;20228;-14
2022/04/12 11:48:44;;;;;;;4.88;2.20;;;;;;;;;;5117431;27;21035;-14
2022/04/12 11:51:11;;;;;;;2.80;2.00;;;;;;;;;;5116954;27;20231;-14
2022/04/12 11:53:46;;;;;;;6.22;2.22;;;;;;;;;;5124347;27;20620;-14
2022/04/12 11:56:14;;;;;;;4.57;2.58;;;;;;;;;;5117656;27;20224;-14
2022/04/12 11:58:42;;;;;;;3.90;2.72;;;;;;;;;;5117082;27;20236;-14
2022/04/12 12:01:10;;;;;;;3.25;2.20;;;;;;;;;;5121940;27;20699;-14
2022/04/12 12:03:39;;;;;;;4.20;2.20;;;;;;;;;;5124562;27;20227;-14
2022/04/12 12:06:07;;;;;;;2.97;2.10;;;;;;;;;;5120674;27;20695;-14
2022/04/12 12:08:34;;;;;;;3.35;2.20;;;;;;;;;;5123758;27;20964;-14
2022/04/12 12:11:09;;;;;;;4.03;2.25;;;;;;;;;;5120415;27;20237;-14
2022/04/12 12:13:38;;;;;;;6.90;2.22;;;;;;;;;;5121025;27;20357;-14
2022/04/12 12:16:14;;;;;;;3.83;2.15;;;;;;;;;;5121691;27;20314;-14
2022/04/12 12:18:41;;;;;;;3.65;2.08;;;;;;;;;;5116987;27;20239;-15
2022/04/12 12:21:12;;;;;;;5.18;2.15;;;;;;;;;;5116760;27;20254;-14
2022/04/12 12:23:41;;;;;;;2.85;1.90;;;;;;;;;;5116998;27;20236;-14
2022/04/12 12:26:08;;;;;;;5.55;2.20;;;;;;;;;;5123933;27;21111;-14
2022/04/12 12:28:39;;;;;;;2.35;1.77;;;;;;;;;;5121796;27;20219;-14
2022/04/12 12:31:08;;;;;;;7.13;2.30;;;;;;;;;;5120125;27;21156;-14
2022/04/12 12:33:36;;;;;;;5.88;2.50;;;;;;;;;;5120719;27;20240;-14
2022/04/12 12:36:04;;;;;;;2.83;1.90;;;;;;;;;;5122825;27;20212;-15
2022/04/12 12:38:32;;;;;;;4.35;2.03;;;;;;;;;;5120255;27;20236;-14
2022/04/12 12:40:59;;;;;;;6.28;2.20;;;;;;;;;;5120181;27;20234;-14
2022/04/12 12:43:28;;;;;;;3.05;1.88;;;;;;;;;;5122150;27;20854;-14
2022/04/12 12:45:55;;;;;;;3.42;1.85;;;;;;;;;;5119658;27;20234;-14
2022/04/12 12:48:24;;;;;;;3.92;2.17;;;;;;;;;;5123261;27;20220;-15
2022/04/12 12:50:51;;;;;;;4.25;2.15;;;;;;;;;;5119554;27;21294;-14
2022/04/12 12:53:24;;;;;;;4.82;2.10;;;;;;;;;;5123117;27;20230;-14
2022/04/12 12:55:51;;;;;;;3.58;1.90;;;;;;;;;;5120278;27;21000;-14
2022/04/12 12:58:19;;;;;;;3.45;1.88;;;;;;;;;;5120616;27;20236;-14
2022/04/12 13:00:46;;;;;;;4.25;1.90;;;;;;;;;;5120954;27;20230;-15
2022/04/12 13:03:14;;;;;;;3.80;1.83;;;;;;;;;;5119959;27;20233;-14
2022/04/12 13:05:54;;;;;;;5.03;1.95;;;;;;;;;;5115598;27;20227;-14
2022/04/12 13:08:22;;;;;;;3.95;1.88;;;;;;;;;;5120503;27;20235;-14
2022/04/12 13:10:49;;;;;;;5.70;2.20;;;;;;;;;;5112257;27;20233;-15
2022/04/12 13:13:17;;;;;;;5.55;2.92;;;;;;;;;;5121347;27;20718;-15
2022/04/12 13:15:44;;;;;;;5.60;2.92;;;;;;;;;;5105859;27;20229;-15
2022/04/12 13:18:11;;;;;;;6.07;3.40;;;;;;;;;;5112697;27;20284;-15
2022/04/12 13:20:39;;;;;;;5.35;3.03;;;;;;;;;;5105551;27;20235;-15
2022/04/12 13:23:07;;;;;;;4.53;3.00;;;;;;;;;;5106213;27;20247;-14
2022/04/12 13:25:35;;;;;;;9.68;3.42;;;;;;;;;;5111273;27;22032;-14
2022/04/12 13:28:02;;;;;;;5.25;3.20;;;;;;;;;;5112206;27;20276;-15
2022/04/12 13:30:29;;;;;;;7.85;3.13;;;;;;;;;;5111766;27;20263;-15
2022/04/12 13:32:57;;;;;;;6.90;3.30;;;;;;;;;;5114454;27;20710;-15
2022/04/12 13:35:24;;;;;;;12.88;3.75;;;;;;;;;;5114106;27;20240;-15
2022/04/12 13:37:52;;;;;;;7.00;2.75;;;;;;;;;;5103772;27;20695;-15
2022/04/12 13:40:20;;;;;;;5.65;3.38;;;;;;;;;;5101973;27;20232;-15
2022/04/12 13:42:47;;;;;;;8.90;3.47;;;;;;;;;;5112493;27;21033;-15
2022/04/12 13:45:15;;;;;;;6.43;3.15;;;;;;;;;;5110512;27;20232;-15
2022/04/12 13:47:42;;;;;;;6.90;3.33;;;;;;;;;;5112854;27;20613;-15
2022/04/12 13:50:10;;;;;;;6.50;2.97;;;;;;;;;;5116327;27;20327;-15
2022/04/12 13:52:37;;;;;;;4.18;2.75;;;;;;;;;;5118237;27;20223;-15
2022/04/12 13:55:06;;;;;;;10.35;2.97;;;;;;;;;;5112469;27;20251;-15
2022/04/12 13:57:36;;;;;;;7.95;3.17;;;;;;;;;;5118786;27;20828;-15
2022/04/12 14:00:04;;;;;;;6.43;2.97;;;;;;;;;;5112690;27;20231;-15
2022/04/12 14:02:32;;;;;;;6.18;2.90;;;;;;;;;;5111732;27;20232;-15
2022/04/12 14:04:59;;;;;;;5.05;2.53;;;;;;;;;;5120502;27;20979;-15
2022/04/12 14:07:27;;;;;;;7.57;2.40;;;;;;;;;;5115831;27;20224;-15
2022/04/12 14:09:55;;;;;;;7.78;2.78;;;;;;;;;;5124869;27;20215;-15
2022/04/12 14:12:26;;;;;;;5.25;2.50;;;;;;;;;;5120948;27;20263;-15
2022/04/12 14:14:55;;;;;;;6.22;2.30;;;;;;;;;;5123726;27;20240;-15
2022/04/12 14:17:22;;;;;;;3.63;2.28;;;;;;;;;;5122720;27;21066;-15
2022/04/12 14:19:50;;;;;;;5.05;2.40;;;;;;;;;;5124887;27;20314;-15
2022/04/12 14:22:17;;;;;;;4.70;2.55;;;;;;;;;;5122320;27;20248;-15
2022/04/12 14:24:45;;;;;;;4.03;1.95;;;;;;;;;;5125750;27;20627;-15
2022/04/12 14:27:13;;;;;;;4.05;2.15;;;;;;;;;;5118277;27;20236;-15
2022/04/12 14:29:40;;;;;;;5.95;2.10;;;;;;;;;;5120164;27;20580;-15
2022/04/12 14:32:10;;;;;;;8.55;2.53;;;;;;;;;;5121913;27;20231;-15
2022/04/12 14:34:37;;;;;;;6.65;2.08;;;;;;;;;;5122763;27;20244;-15
2022/04/12 14:37:04;;;;;;;5.22;2.58;;;;;;;;;;5118099;27;20239;-15
2022/04/12 14:39:32;;;;;;;2.78;1.85;;;;;;;;;;5123979;27;20315;-15
2022/04/12 14:42:05;;;;;;;4.57;2.30;;;;;;;;;;5123020;27;20230;-15
2022/04/12 14:44:33;;;;;;;3.92;1.80;;;;;;;;;;5125326;27;20243;-15
2022/04/12 14:47:02;;;;;;;4.05;2.08;;;;;;;;;;5123532;27;20585;-15
2022/04/12 14:49:31;;;;;;;3.60;1.92;;;;;;;;;;5123752;27;20224;-15
2022/04/12 14:51:58;;;;;;;4.40;2.15;;;;;;;;;;5123060;27;20253;-15